createdAt,value
2024-03-02T00:01:17.417Z,1.73
2024-03-02T00:03:46.905Z,0.77
2024-03-02T00:06:13.844Z,0.60
2024-03-02T00:08:41.141Z,0.65
2024-03-02T00:11:08.927Z,0.80
2024-03-02T00:13:36.874Z,0.50
2024-03-02T00:16:06.608Z,0.55
2024-03-02T00:18:37.439Z,0.70
2024-03-02T00:21:06.862Z,0.70
2024-03-02T00:23:36.097Z,0.65
2024-03-02T00:26:03.449Z,0.30
2024-03-02T00:28:37.822Z,0.80
2024-03-02T00:31:14.973Z,1.10
2024-03-02T00:33:49.644Z,1.45
2024-03-02T00:36:18.447Z,0.65
2024-03-02T00:38:50.655Z,0.57
2024-03-02T00:41:20.577Z,0.98
2024-03-02T00:44:06.081Z,1.27
2024-03-02T00:46:38.247Z,2.63
2024-03-02T00:49:12.959Z,0.80
2024-03-02T00:51:40.729Z,0.60
2024-03-02T00:54:10.460Z,0.60
2024-03-02T00:56:37.418Z,0.93
2024-03-02T00:59:04.457Z,1.40
2024-03-02T01:01:31.272Z,0.68
2024-03-02T01:03:58.205Z,0.90
2024-03-02T01:06:25.167Z,1.00
2024-03-02T01:08:53.190Z,0.88
2024-03-02T01:11:23.787Z,1.17
2024-03-02T01:13:51.501Z,1.70
2024-03-02T01:16:18.257Z,0.65
2024-03-02T01:18:45.254Z,1.13
2024-03-02T01:21:12.096Z,1.40
2024-03-02T01:23:38.985Z,0.80
2024-03-02T01:26:05.910Z,1.15
2024-03-02T01:28:32.714Z,0.80
2024-03-02T01:30:59.699Z,0.90
2024-03-02T01:33:26.808Z,1.17
2024-03-02T01:35:53.669Z,1.15
2024-03-02T01:38:20.994Z,1.52
2024-03-02T01:40:47.849Z,0.88
2024-03-02T01:43:14.633Z,0.80
2024-03-02T01:45:41.611Z,1.52
2024-03-02T01:48:08.802Z,1.52
2024-03-02T01:50:36.544Z,1.30
2024-03-02T01:53:04.367Z,0.77
2024-03-02T01:55:31.990Z,1.10
2024-03-02T01:58:00.054Z,1.10
2024-03-02T02:00:27.429Z,1.20
2024-03-02T02:02:55.077Z,1.70
2024-03-02T02:05:22.018Z,0.90
2024-03-02T02:07:48.838Z,1.48
2024-03-02T02:10:15.990Z,1.33
2024-03-02T02:12:42.898Z,0.70
2024-03-02T02:15:25.147Z,1.38
2024-03-02T02:17:52.142Z,1.50
2024-03-02T02:20:20.254Z,1.48
2024-03-02T02:23:12.009Z,0.90
2024-03-02T02:25:38.916Z,1.23
2024-03-02T02:28:05.869Z,1.48
2024-03-02T02:30:33.560Z,1.02
2024-03-02T02:33:01.126Z,1.08
2024-03-02T02:35:28.218Z,1.17
2024-03-02T02:37:56.482Z,0.65
2024-03-02T02:40:23.589Z,1.10
2024-03-02T02:42:50.762Z,1.80
2024-03-02T02:45:18.033Z,0.93
2024-03-02T02:47:45.733Z,1.33
2024-03-02T02:50:13.970Z,0.90
2024-03-02T02:52:42.723Z,0.73
2024-03-02T02:55:13.203Z,2.65
2024-03-02T02:57:45.117Z,1.63
2024-03-02T03:00:17.231Z,1.77
2024-03-02T03:02:46.942Z,1.95
2024-03-02T03:05:15.469Z,2.28
2024-03-02T03:07:42.898Z,1.00
2024-03-02T03:10:10.126Z,0.93
2024-03-02T03:12:37.717Z,1.02
2024-03-02T03:15:09.502Z,1.23
2024-03-02T03:17:37.095Z,1.30
2024-03-02T03:20:05.317Z,1.33
2024-03-02T03:22:33.067Z,1.60
2024-03-02T03:25:00.990Z,1.00
2024-03-02T03:27:28.376Z,0.82
2024-03-02T03:29:55.609Z,1.90
2024-03-02T03:32:23.155Z,1.73
2024-03-02T03:34:50.110Z,1.40
2024-03-02T03:37:17.083Z,1.42
2024-03-02T03:39:43.906Z,1.38
2024-03-02T03:42:10.757Z,1.60
2024-03-02T03:44:37.493Z,1.65
2024-03-02T03:47:04.345Z,1.27
2024-03-02T03:49:31.068Z,1.48
2024-03-02T03:51:57.924Z,1.90
2024-03-02T03:54:24.753Z,2.58
2024-03-02T03:56:51.500Z,1.80
2024-03-02T03:59:18.329Z,1.75
2024-03-02T04:01:45.115Z,1.38
2024-03-02T04:04:12.000Z,2.17
2024-03-02T04:06:38.793Z,2.05
2024-03-02T04:09:05.548Z,1.33
2024-03-02T04:11:32.430Z,1.70
2024-03-02T04:13:59.443Z,3.05
2024-03-02T04:16:26.389Z,2.13
2024-03-02T04:18:53.348Z,1.73
2024-03-02T04:21:20.237Z,1.40
2024-03-02T04:23:47.103Z,2.35
2024-03-02T04:26:13.862Z,1.40
2024-03-02T04:28:40.650Z,1.70
2024-03-02T04:31:07.634Z,1.73
2024-03-02T04:33:34.569Z,2.92
2024-03-02T04:36:01.382Z,2.17
2024-03-02T04:38:28.430Z,1.60
2024-03-02T04:40:55.253Z,1.45
2024-03-02T04:43:22.012Z,2.08
2024-03-02T04:45:48.979Z,1.13
2024-03-02T04:48:15.919Z,2.08
2024-03-02T04:50:42.729Z,1.58
2024-03-02T04:53:09.678Z,1.65
2024-03-02T04:55:36.477Z,1.30
2024-03-02T04:58:03.412Z,1.08
2024-03-02T05:00:30.266Z,1.55
2024-03-02T05:02:57.045Z,1.80
2024-03-02T05:05:23.871Z,1.73
2024-03-02T05:07:50.727Z,1.88
2024-03-02T05:10:17.576Z,1.42
2024-03-02T05:12:44.636Z,1.65
2024-03-02T05:15:13.501Z,1.35
2024-03-02T05:17:47.021Z,1.52
2024-03-02T05:20:13.919Z,2.38
2024-03-02T05:22:41.175Z,2.25
2024-03-02T05:25:08.552Z,2.05
2024-03-02T05:27:35.597Z,2.05
2024-03-02T05:30:03.081Z,1.48
2024-03-02T05:32:30.123Z,1.95
2024-03-02T05:34:56.930Z,2.22
2024-03-02T05:37:23.757Z,2.03
2024-03-02T05:39:50.759Z,1.77
2024-03-02T05:42:20.400Z,1.98
2024-03-02T05:44:47.297Z,1.85
2024-03-02T05:47:14.244Z,1.70
2024-03-02T05:49:41.036Z,1.85
2024-03-02T05:52:08.166Z,2.58
2024-03-02T05:54:34.993Z,1.85
2024-03-02T05:57:18.286Z,1.98
2024-03-02T05:59:45.418Z,3.17
2024-03-02T06:02:12.168Z,1.90
2024-03-02T06:04:40.795Z,2.22
2024-03-02T06:07:07.827Z,2.42
2024-03-02T06:09:35.141Z,1.98
2024-03-02T06:12:02.038Z,1.98
2024-03-02T06:14:28.772Z,3.47
2024-03-02T06:16:55.506Z,1.80
2024-03-02T06:19:22.816Z,1.60
2024-03-02T06:21:49.624Z,1.67
2024-03-02T06:24:16.843Z,1.40
2024-03-02T06:26:43.714Z,2.08
2024-03-02T06:29:10.618Z,2.83
2024-03-02T06:31:37.472Z,1.40
2024-03-02T06:34:05.939Z,2.72
2024-03-02T06:36:32.938Z,1.63
2024-03-02T06:38:59.729Z,1.42
2024-03-02T06:41:27.772Z,2.38
2024-03-02T06:44:00.617Z,1.98
2024-03-02T06:46:27.696Z,1.92
2024-03-02T06:48:54.645Z,1.88
2024-03-02T06:51:21.533Z,1.85
2024-03-02T06:53:48.498Z,1.48
2024-03-02T06:56:15.371Z,2.55
2024-03-02T06:58:43.955Z,2.42
2024-03-02T07:01:11.120Z,1.95
2024-03-02T07:03:38.217Z,1.27
2024-03-02T07:06:05.758Z,2.72
2024-03-02T07:08:32.622Z,2.03
2024-03-02T07:10:59.590Z,1.58
2024-03-02T07:13:26.678Z,2.05
2024-03-02T07:16:05.538Z,1.77
2024-03-02T07:18:32.745Z,1.48
2024-03-02T07:21:01.946Z,1.30
2024-03-02T07:23:28.921Z,1.55
2024-03-02T07:28:27.847Z,0.90
2024-03-02T07:31:05.878Z,1.65
2024-03-02T07:33:33.385Z,1.17
2024-03-02T07:36:04.639Z,2.53
2024-03-02T07:38:33.579Z,1.27
2024-03-02T07:41:01.632Z,1.75
2024-03-02T07:43:28.456Z,2.22
2024-03-02T07:45:55.419Z,2.13
2024-03-02T07:48:22.386Z,2.85
2024-03-02T07:50:49.219Z,1.60
2024-03-02T07:53:16.077Z,2.40
2024-03-02T07:55:43.244Z,1.67
2024-03-02T07:58:10.414Z,2.15
2024-03-02T08:00:37.463Z,0.80
2024-03-02T08:03:04.602Z,2.30
2024-03-02T08:05:31.511Z,0.90
2024-03-02T08:07:58.361Z,1.58
2024-03-02T08:10:25.151Z,1.20
2024-03-02T08:12:52.246Z,1.42
2024-03-02T08:15:19.144Z,1.55
2024-03-02T08:17:49.893Z,1.45
2024-03-02T08:20:16.996Z,1.20
2024-03-02T08:22:43.975Z,1.33
2024-03-02T08:25:11.234Z,1.25
2024-03-02T08:27:39.510Z,1.13
2024-03-02T08:30:08.331Z,1.70
2024-03-02T08:32:35.619Z,1.08
2024-03-02T08:35:02.680Z,0.57
2024-03-02T08:37:30.607Z,1.88
2024-03-02T08:39:57.729Z,1.63
2024-03-02T08:42:24.689Z,1.55
2024-03-02T08:44:51.598Z,1.98
2024-03-02T08:47:18.583Z,1.40
2024-03-02T08:49:45.359Z,1.90
2024-03-02T08:52:12.276Z,1.42
2024-03-02T08:54:39.261Z,1.55
2024-03-02T08:57:07.266Z,1.77
2024-03-02T08:59:34.592Z,0.95
2024-03-02T09:02:01.460Z,1.13
2024-03-02T09:04:31.669Z,0.40
2024-03-02T09:07:00.725Z,1.73
2024-03-02T09:09:27.787Z,0.50
2024-03-02T09:11:56.310Z,0.68
2024-03-02T09:14:23.430Z,0.88
2024-03-02T09:16:50.367Z,0.50
2024-03-02T09:19:18.743Z,0.60
2024-03-02T09:21:45.833Z,1.00
2024-03-02T09:24:16.066Z,0.90
2024-03-02T09:26:44.544Z,3.20
2024-03-02T09:29:11.357Z,0.85
2024-03-02T09:31:42.512Z,1.73
2024-03-02T09:34:09.577Z,1.17
2024-03-02T09:36:36.454Z,1.67
2024-03-02T09:39:04.984Z,1.13
2024-03-02T09:41:36.938Z,1.00
2024-03-02T09:44:04.399Z,1.70
2024-03-02T09:46:31.510Z,1.23
2024-03-02T09:48:58.382Z,3.13
2024-03-02T09:51:25.316Z,1.38
2024-03-02T09:53:52.589Z,1.98
2024-03-02T09:56:20.227Z,0.98
2024-03-02T09:58:47.039Z,1.95
2024-03-02T10:01:14.008Z,1.42
2024-03-02T10:03:43.084Z,1.52
2024-03-02T10:06:26.867Z,1.20
2024-03-02T10:08:54.631Z,1.02
2024-03-02T10:11:37.886Z,1.30
2024-03-02T10:14:09.574Z,1.10
2024-03-02T10:16:37.757Z,0.60
2024-03-02T10:19:24.469Z,1.08
2024-03-02T10:21:53.013Z,1.50
2024-03-02T10:24:21.507Z,2.25
2024-03-02T10:26:49.276Z,3.97
2024-03-02T10:29:16.576Z,2.65
2024-03-02T10:31:45.697Z,1.15
2024-03-02T10:34:14.398Z,1.95
2024-03-02T10:36:46.512Z,2.58
2024-03-02T10:39:15.736Z,1.15
2024-03-02T10:41:42.602Z,1.08
2024-03-02T10:44:10.993Z,3.45
2024-03-02T10:46:39.090Z,1.42
2024-03-02T10:49:08.733Z,1.83
2024-03-02T10:51:38.129Z,1.50
2024-03-02T10:54:06.106Z,1.63
2024-03-02T10:56:42.009Z,1.35
2024-03-02T10:59:24.637Z,0.73
2024-03-02T11:04:20.091Z,2.58
2024-03-02T11:06:51.158Z,1.15
2024-03-02T11:09:22.727Z,1.20
2024-03-02T11:12:28.563Z,0.90
2024-03-02T11:14:57.195Z,0.60
2024-03-02T11:17:24.997Z,1.08
2024-03-02T11:19:52.711Z,1.63
2024-03-02T11:22:20.325Z,0.50
2024-03-02T11:24:52.397Z,0.40
2024-03-02T11:27:54.090Z,1.20
2024-03-02T11:30:36.409Z,1.00
2024-03-02T11:33:12.526Z,1.77
2024-03-02T11:35:49.620Z,1.65
2024-03-02T11:38:16.556Z,1.00
2024-03-02T11:40:44.320Z,1.20
2024-03-02T11:43:12.106Z,1.02
2024-03-02T11:45:44.384Z,0.80
2024-03-02T11:48:15.033Z,0.75
2024-03-02T11:50:47.350Z,1.63
2024-03-02T11:53:14.944Z,0.40
2024-03-02T11:55:42.173Z,0.57
2024-03-02T11:58:09.425Z,0.22
2024-03-02T12:00:36.781Z,0.30
2024-03-02T12:03:09.944Z,0.40
2024-03-02T12:05:37.633Z,1.08
2024-03-02T12:08:07.404Z,0.17
2024-03-02T12:10:36.869Z,0.57
2024-03-02T12:13:06.278Z,0.30
2024-03-02T12:15:35.220Z,0.32
2024-03-02T12:18:03.155Z,0.10
2024-03-02T12:20:31.632Z,0.35
2024-03-02T12:23:03.685Z,0.28
2024-03-02T12:25:32.907Z,0.43
2024-03-02T12:28:02.158Z,0.45
2024-03-02T12:30:31.851Z,0.60
2024-03-02T12:32:58.736Z,0.30
2024-03-02T12:35:26.490Z,0.60
2024-03-02T12:37:54.743Z,0.60
2024-03-02T12:40:23.842Z,0.77
2024-03-02T12:42:52.562Z,0.80
2024-03-02T12:45:25.357Z,1.00
2024-03-02T12:47:53.127Z,0.57
2024-03-02T12:50:20.896Z,0.50
2024-03-02T12:52:55.209Z,1.02
2024-03-02T12:55:23.832Z,0.85
2024-03-02T12:57:54.787Z,0.80
2024-03-02T13:00:23.447Z,0.50
2024-03-02T13:02:52.416Z,0.40
2024-03-02T13:05:21.142Z,0.38
2024-03-02T13:07:49.814Z,0.60
2024-03-02T13:10:18.028Z,0.95
2024-03-02T13:12:44.973Z,0.40
2024-03-02T13:15:15.603Z,0.40
2024-03-02T13:17:46.815Z,0.40
2024-03-02T13:20:15.691Z,0.50
2024-03-02T13:22:43.091Z,0.50
2024-03-02T13:25:12.680Z,0.50
2024-03-02T13:27:41.378Z,0.30
2024-03-02T13:30:10.841Z,0.20
2024-03-02T13:32:38.208Z,0.50
2024-03-02T13:35:06.437Z,0.70
2024-03-02T13:37:34.823Z,0.50
2024-03-02T13:40:02.064Z,0.30
2024-03-02T13:42:29.164Z,1.05
2024-03-02T13:44:56.305Z,0.95
2024-03-02T13:47:23.188Z,0.35
2024-03-02T13:49:50.460Z,0.30
2024-03-02T13:52:21.780Z,0.30
2024-03-02T13:54:49.682Z,0.25
2024-03-02T13:57:18.140Z,0.73
2024-03-02T13:59:45.193Z,0.40
2024-03-02T14:02:13.182Z,0.90
2024-03-02T14:04:40.626Z,0.30
2024-03-02T14:07:08.583Z,0.70
2024-03-02T14:09:35.705Z,0.40
2024-03-02T14:12:03.310Z,0.17
2024-03-02T14:14:30.228Z,0.70
2024-03-02T14:16:57.292Z,0.70
2024-03-02T14:19:24.296Z,0.25
2024-03-02T14:21:51.419Z,0.22
2024-03-02T14:24:18.409Z,0.30
2024-03-02T14:26:46.342Z,0.40
2024-03-02T14:29:13.610Z,0.70
2024-03-02T14:31:40.695Z,0.40
2024-03-02T14:34:07.676Z,1.75
2024-03-02T14:36:37.161Z,0.47
2024-03-02T14:39:05.506Z,0.17
2024-03-02T14:41:32.350Z,0.25
2024-03-02T14:43:59.532Z,0.28
2024-03-02T14:46:26.336Z,0.47
2024-03-02T14:48:53.237Z,0.52
2024-03-02T14:51:20.157Z,0.47
2024-03-02T14:53:47.317Z,0.40
2024-03-02T14:56:17.413Z,0.38
2024-03-02T14:58:46.354Z,1.33
2024-03-02T15:01:14.032Z,0.90
2024-03-02T15:03:42.590Z,0.88
2024-03-02T15:06:09.860Z,0.47
2024-03-02T15:08:36.867Z,0.50
2024-03-02T15:11:05.238Z,0.60
2024-03-02T15:13:32.148Z,0.70
2024-03-02T15:15:59.914Z,0.90
2024-03-02T15:18:27.071Z,0.57
2024-03-02T15:20:54.048Z,0.60
2024-03-02T15:23:20.821Z,0.60
2024-03-02T15:25:47.680Z,0.80
2024-03-02T15:28:15.049Z,0.60
2024-03-02T15:30:42.623Z,0.65
2024-03-02T15:33:09.543Z,0.40
2024-03-02T15:35:36.620Z,0.70
2024-03-02T15:38:03.771Z,0.70
2024-03-02T15:40:30.786Z,0.70
2024-03-02T15:42:57.643Z,0.50
2024-03-02T15:45:25.415Z,0.80
2024-03-02T15:47:52.423Z,0.70
2024-03-02T15:50:19.371Z,0.80
2024-03-02T15:52:47.878Z,0.60
2024-03-02T15:55:15.105Z,0.55
2024-03-02T15:57:42.144Z,0.60
2024-03-02T16:00:10.092Z,0.90
2024-03-02T16:02:37.555Z,0.57
2024-03-02T16:05:05.616Z,0.85
2024-03-02T16:07:33.558Z,0.93
2024-03-02T16:10:05.138Z,0.90
2024-03-02T16:12:33.020Z,0.90
2024-03-02T16:15:00.381Z,0.55
2024-03-02T16:17:28.007Z,0.68
2024-03-02T16:19:56.315Z,0.98
2024-03-02T16:22:24.270Z,0.85
2024-03-02T16:24:52.356Z,0.70
2024-03-02T16:27:20.276Z,1.10
2024-03-02T16:29:49.200Z,1.30
2024-03-02T16:32:16.411Z,0.50
2024-03-02T16:34:43.752Z,0.80
2024-03-02T16:37:11.215Z,0.22
2024-03-02T16:39:38.580Z,0.50
2024-03-02T16:42:05.795Z,0.60
2024-03-02T16:47:00.571Z,1.58
2024-03-02T16:49:28.409Z,0.98
2024-03-02T16:51:56.374Z,1.02
2024-03-02T16:54:23.746Z,0.80
2024-03-02T16:56:51.336Z,0.77
2024-03-02T16:59:18.674Z,1.63
2024-03-02T17:01:46.222Z,1.30
2024-03-02T17:04:13.510Z,1.02
2024-03-02T17:06:41.199Z,1.17
2024-03-02T17:09:08.547Z,0.70
2024-03-02T17:11:36.441Z,1.48
2024-03-02T17:14:04.777Z,1.08
2024-03-02T17:16:32.284Z,0.98
2024-03-02T17:19:00.484Z,1.42
2024-03-02T17:21:27.855Z,1.08
2024-03-02T17:23:55.613Z,0.80
2024-03-02T17:26:22.872Z,1.50
2024-03-02T17:28:51.039Z,1.98
2024-03-02T17:31:21.138Z,1.38
2024-03-02T17:33:48.830Z,1.40
2024-03-02T17:36:19.460Z,1.90
2024-03-02T17:39:01.530Z,1.38
2024-03-02T17:41:32.832Z,1.20
2024-03-02T17:44:01.106Z,1.40
2024-03-02T17:46:28.592Z,0.68
2024-03-02T17:48:55.802Z,1.25
2024-03-02T17:51:23.183Z,1.52
2024-03-02T17:53:53.030Z,2.42
2024-03-02T17:56:20.010Z,1.80
2024-03-02T17:58:47.037Z,1.25
2024-03-02T18:01:13.840Z,3.20
2024-03-02T18:03:40.963Z,3.10
2024-03-02T18:06:09.792Z,2.05
2024-03-02T18:08:39.145Z,1.10
2024-03-02T18:11:07.818Z,1.77
2024-03-02T18:13:37.782Z,1.42
2024-03-02T18:16:05.908Z,1.20
2024-03-02T18:18:33.159Z,1.35
2024-03-02T18:21:00.151Z,0.75
2024-03-02T18:23:26.922Z,0.57
2024-03-02T18:25:53.811Z,0.80
2024-03-02T18:28:20.823Z,1.20
2024-03-02T18:30:47.825Z,2.80
2024-03-02T18:33:16.926Z,1.63
2024-03-02T18:35:44.069Z,1.02
2024-03-02T18:38:11.081Z,1.95
2024-03-02T18:40:37.808Z,1.42
2024-03-02T18:43:05.665Z,1.50
2024-03-02T18:45:32.749Z,1.65
2024-03-02T18:48:03.943Z,1.60
2024-03-02T18:50:31.553Z,2.05
2024-03-02T18:52:58.359Z,2.20
2024-03-02T18:55:25.168Z,2.42
2024-03-02T18:57:52.002Z,4.60
2024-03-02T19:00:19.323Z,3.08
2024-03-02T19:02:46.442Z,4.35
2024-03-02T19:05:13.345Z,3.50
2024-03-02T19:07:40.177Z,3.35
2024-03-02T19:10:09.987Z,4.35
2024-03-02T19:12:39.828Z,3.83
2024-03-02T19:15:08.646Z,3.17
2024-03-02T19:17:35.532Z,2.08
2024-03-02T19:20:03.683Z,3.20
2024-03-02T19:22:31.987Z,2.15
2024-03-02T19:24:59.032Z,2.97
2024-03-02T19:27:25.974Z,1.80
2024-03-02T19:29:52.845Z,2.72
2024-03-02T19:32:23.137Z,1.98
2024-03-02T19:34:51.774Z,1.85
2024-03-02T19:37:18.562Z,2.50
2024-03-02T19:39:45.367Z,2.97
2024-03-02T19:42:12.241Z,3.75
2024-03-02T19:44:39.077Z,2.45
2024-03-02T19:47:05.891Z,2.58
2024-03-02T19:49:32.969Z,2.28
2024-03-02T19:51:59.818Z,3.03
2024-03-02T19:54:26.776Z,2.95
2024-03-02T19:56:56.346Z,3.67
2024-03-02T19:59:23.344Z,3.88
2024-03-02T20:01:50.450Z,4.03
2024-03-02T20:04:18.008Z,5.13
2024-03-02T20:06:45.034Z,4.68
2024-03-02T20:09:12.781Z,4.25
2024-03-02T20:11:40.154Z,3.97
2024-03-02T20:14:07.089Z,4.82
2024-03-02T20:16:34.009Z,4.80
2024-03-02T20:19:01.043Z,4.10
2024-03-02T20:21:28.095Z,5.60
2024-03-02T20:23:55.314Z,6.20
2024-03-02T20:26:22.753Z,4.22
2024-03-02T20:28:53.513Z,6.10
2024-03-02T20:31:23.509Z,3.90
2024-03-02T20:33:50.331Z,3.55
2024-03-02T20:36:17.494Z,3.72
2024-03-02T20:38:44.553Z,3.10
2024-03-02T20:41:18.870Z,3.67
2024-03-02T20:43:46.261Z,3.47
2024-03-02T20:46:13.780Z,3.67
2024-03-02T20:48:41.659Z,3.75
2024-03-02T20:51:08.813Z,4.65
2024-03-02T20:53:35.688Z,4.43
2024-03-02T20:56:02.675Z,3.00
2024-03-02T20:58:29.503Z,2.80
2024-03-02T21:00:56.342Z,2.45
2024-03-02T21:03:25.819Z,2.88
2024-03-02T21:05:52.584Z,2.45
2024-03-02T21:08:19.530Z,2.70
2024-03-02T21:10:48.561Z,2.90
2024-03-02T21:13:18.184Z,2.30
2024-03-02T21:15:45.516Z,1.77
2024-03-02T21:18:12.601Z,1.90
2024-03-02T21:20:39.422Z,3.35
2024-03-02T21:23:07.506Z,2.47
2024-03-02T21:25:36.455Z,3.38
2024-03-02T21:28:03.593Z,3.47
2024-03-02T21:30:31.781Z,3.85
2024-03-02T21:32:58.856Z,4.20
2024-03-02T21:35:25.706Z,4.97
2024-03-02T21:37:52.443Z,4.40
2024-03-02T21:40:20.471Z,5.07
2024-03-02T21:42:47.539Z,3.10
2024-03-02T21:45:14.505Z,3.55
2024-03-02T21:47:41.469Z,3.95
2024-03-02T21:50:08.827Z,3.03
2024-03-02T21:52:35.686Z,4.43
2024-03-02T21:55:02.832Z,4.93
2024-03-02T21:57:30.826Z,5.88
2024-03-02T21:59:58.577Z,6.43
2024-03-02T22:02:25.417Z,6.03
2024-03-02T22:04:52.297Z,6.90
2024-03-02T22:07:19.206Z,4.22
2024-03-02T22:09:46.048Z,3.40
2024-03-02T22:12:13.272Z,2.72
2024-03-02T22:14:40.444Z,1.90
2024-03-02T22:17:07.269Z,2.03
2024-03-02T22:19:34.032Z,2.03
2024-03-02T22:22:03.045Z,1.58
2024-03-02T22:24:29.981Z,1.45
2024-03-02T22:26:57.104Z,1.95
2024-03-02T22:29:23.997Z,2.10
2024-03-02T22:31:50.762Z,1.55
2024-03-02T22:34:17.759Z,1.10
2024-03-02T22:36:47.702Z,1.40
2024-03-02T22:39:14.573Z,1.40
2024-03-02T22:41:41.485Z,1.25
2024-03-02T22:44:08.238Z,1.75
2024-03-02T22:46:35.164Z,1.38
2024-03-02T22:49:02.021Z,1.88
2024-03-02T22:51:28.930Z,1.38
2024-03-02T22:53:55.980Z,1.60
2024-03-02T22:56:22.726Z,1.52
2024-03-02T22:58:49.638Z,1.25
2024-03-02T23:01:16.900Z,2.28
2024-03-02T23:03:43.872Z,1.35
2024-03-02T23:06:10.714Z,2.17
2024-03-02T23:08:37.768Z,2.17
2024-03-02T23:11:06.001Z,2.63
2024-03-02T23:13:33.105Z,2.42
2024-03-02T23:15:59.976Z,2.38
2024-03-02T23:18:27.532Z,3.10
2024-03-02T23:20:54.905Z,3.42
2024-03-02T23:23:21.818Z,2.83
2024-03-02T23:25:48.675Z,2.45
2024-03-02T23:28:16.851Z,2.60
2024-03-02T23:30:44.528Z,2.15
2024-03-02T23:33:12.493Z,2.42
2024-03-02T23:35:39.463Z,2.60
2024-03-02T23:38:06.598Z,3.22
2024-03-02T23:40:39.154Z,2.05
2024-03-02T23:43:09.072Z,1.42
2024-03-02T23:45:35.926Z,2.83
2024-03-02T23:48:03.572Z,3.08
2024-03-02T23:50:30.957Z,2.30
2024-03-02T23:52:57.884Z,2.50
2024-03-02T23:55:25.953Z,2.70
2024-03-02T23:57:52.880Z,2.05
